עמוד ראשי
METAR-TAF:

METAR-TAF

שדות תעופה :

Al Hoceima, מרוקו

קו רוחב: 35-11N, קו אורך: 003-51W, גובה: 27מטר

תצפית מזג אוויר נוכחית

הדו"ח נערך לפני 28דקות, בשעה 11:00 UTC
רוח 11קשר מכיוון צפון/צפון-מערב, משתנה בין מערב ו צפון/צפון-מזרח
טמפרטורת 26 צלסיוס
לחות 65%
לחץ 1011 hPa
ראות: 8000מטר
עננים פזורים בגובה 1900רגל

METAR: GMTA 251100Z 34011KT 280V020 8000 SCT019 26/19 Q1011 NOSIG

זמן: 12:28 (11:28 UTC)

תחזית

הדו"ח נערך לפני 6 שעות ו 28דקות, בשעה 05:00 UTC
תחזית בתוקף מ 25 ב 06 UTC עד 26 ב 12 UTC
רוח 5קשר מכיוון צפון-מערב
ראות: 8000מטר
עננים פזורים בגובה 1600רגל

TAF: GMTA 250500Z 2506/2612 31005KT 8000 SCT016

תצפיות ותחזיות מזג אוויר לגבי יותר מ- 4,000 שדות תעופה ברחבי העולם. דוחות METAR ו- TAF.

התחנות הזמינות מסומנות בנקודות צהובות ואדומות על גבי המפה.

העבר את העכבר לנקודה הצבעונית על מנת לראות את שם התחנה.

לאחר מכן, לחץ כדי לראות את תוכן ואת תחזיות מזג האוויר.

כדי לשנות את המפה: לחץ על הכפתורים הירוקים עם הפלוס השחור כדי להתקרב; על הכפתור הירוק עם המקף כדי להתרחק; או בחיצים הירוקים למפות סמוכות.


METAR-TAF: